createdAt,value
2022-08-07T00:09:16.788Z,17.00
2022-08-07T00:16:21.780Z,13.50
2022-08-07T00:23:31.547Z,10.90
2022-08-07T00:29:31.449Z,10.20
2022-08-07T00:37:14.933Z,13.30
2022-08-07T00:42:29.470Z,10.20
2022-08-07T00:55:25.529Z,10.20
2022-08-07T00:56:45.276Z,10.40
2022-08-07T01:06:59.438Z,9.60
2022-08-07T01:10:56.279Z,10.00
2022-08-07T01:17:30.590Z,10.20
2022-08-07T01:24:13.048Z,10.40
2022-08-07T01:30:59.615Z,10.00
2022-08-07T01:37:28.110Z,9.70
2022-08-07T01:43:52.839Z,10.20
2022-08-07T01:49:29.276Z,11.40
2022-08-07T01:55:43.854Z,52.00
2022-08-07T02:01:59.716Z,12.20
2022-08-07T02:08:23.854Z,13.40
2022-08-07T02:14:14.548Z,11.90
2022-08-07T02:21:55.187Z,11.80
2022-08-07T02:27:44.866Z,10.70
2022-08-07T02:34:11.583Z,9.90
2022-08-07T02:40:11.881Z,10.30
2022-08-07T02:48:55.186Z,9.80
2022-08-07T02:53:22.016Z,9.70
2022-08-07T02:59:40.946Z,10.40
2022-08-07T03:05:42.421Z,10.70
2022-08-07T03:12:02.741Z,10.70
2022-08-07T03:18:41.119Z,9.90
2022-08-07T03:24:17.908Z,10.10
2022-08-07T03:30:24.303Z,10.60
2022-08-07T03:36:34.922Z,10.70
2022-08-07T03:42:32.835Z,10.50
2022-08-07T03:49:19.513Z,11.00
2022-08-07T03:55:14.522Z,10.70
2022-08-07T04:00:56.985Z,11.10
2022-08-07T04:06:50.989Z,10.60
2022-08-07T04:12:40.679Z,10.40
2022-08-07T04:18:59.754Z,8.80
2022-08-07T04:25:19.519Z,9.10
2022-08-07T04:31:38.735Z,9.60
2022-08-07T04:38:03.537Z,8.80
2022-08-07T04:44:18.478Z,10.70
2022-08-07T04:50:33.474Z,8.10
2022-08-07T04:58:16.756Z,9.10
2022-08-07T05:03:02.198Z,8.90
2022-08-07T05:09:43.121Z,9.30
2022-08-07T05:15:38.575Z,8.30
2022-08-07T05:21:59.510Z,8.50
2022-08-07T05:28:29.059Z,8.30
2022-08-07T05:34:26.319Z,8.10
2022-08-07T05:52:52.285Z,8.20
2022-08-07T05:59:05.218Z,12.10
2022-08-07T06:05:07.619Z,7.20
2022-08-07T06:11:43.073Z,14.60
2022-08-07T06:17:53.509Z,8.10
2022-08-07T06:23:46.791Z,14.00
2022-08-07T06:42:33.069Z,14.00
2022-08-07T06:45:02.602Z,13.20
2022-08-07T06:48:31.254Z,13.70
2022-08-07T06:55:32.525Z,11.60
2022-08-07T07:02:49.280Z,14.30
2022-08-07T07:07:01.186Z,12.90
2022-08-07T07:13:06.545Z,9.70
2022-08-07T07:19:16.196Z,9.00
2022-08-07T07:26:30.773Z,6.60
2022-08-07T07:31:23.661Z,13.30
2022-08-07T07:37:21.558Z,12.90
2022-08-07T07:44:14.613Z,7.60
2022-08-07T07:50:33.699Z,5.80
2022-08-07T07:55:37.074Z,6.70
2022-08-07T08:02:02.299Z,5.40
2022-08-07T08:07:42.335Z,4.80
2022-08-07T08:13:54.754Z,4.40
2022-08-07T08:20:17.810Z,4.70
2022-08-07T08:26:12.555Z,4.80
2022-08-07T08:32:17.550Z,4.90
2022-08-07T08:38:01.338Z,4.00
2022-08-07T08:44:13.700Z,3.70
2022-08-07T08:50:06.134Z,3.00
2022-08-07T08:55:58.811Z,2.90
2022-08-07T09:02:08.732Z,2.60
2022-08-07T09:07:58.085Z,2.50
2022-08-07T09:14:27.479Z,1.70
2022-08-07T09:20:42.279Z,2.30
2022-08-07T09:27:13.478Z,2.60
2022-08-07T09:33:24.432Z,3.00
2022-08-07T09:39:55.454Z,2.00
2022-08-07T09:47:51.541Z,1.70
2022-08-07T09:52:10.726Z,2.70
2022-08-07T09:58:16.165Z,2.50
2022-08-07T10:04:06.536Z,4.40
2022-08-07T10:10:22.802Z,4.00
2022-08-07T10:16:33.954Z,3.00
2022-08-07T10:24:21.335Z,2.40
2022-08-07T10:28:55.634Z,2.50
2022-08-07T10:35:56.710Z,2.20
2022-08-07T10:41:47.370Z,2.70
2022-08-07T10:47:53.728Z,2.40
2022-08-07T10:53:49.097Z,2.20
2022-08-07T11:00:39.258Z,2.00
2022-08-07T11:06:44.442Z,2.20
2022-08-07T11:12:44.744Z,2.30
2022-08-07T11:18:41.813Z,2.10
2022-08-07T11:24:58.455Z,1.90
2022-08-07T11:30:46.159Z,1.90
2022-08-07T11:36:47.684Z,2.30
2022-08-07T11:42:43.243Z,2.00
2022-08-07T11:49:51.392Z,1.80
2022-08-07T11:56:08.592Z,2.60
2022-08-07T12:01:25.526Z,2.20
2022-08-07T12:08:25.466Z,2.00
2022-08-07T12:14:07.413Z,1.90
2022-08-07T12:20:14.051Z,2.00
2022-08-07T12:26:42.027Z,2.20
2022-08-07T12:32:52.229Z,1.40
2022-08-07T12:38:42.524Z,1.60
2022-08-07T12:44:19.414Z,2.10
2022-08-07T12:50:34.095Z,1.90
2022-08-07T12:56:11.353Z,3.00
2022-08-07T13:01:59.626Z,1.70
2022-08-07T13:08:12.537Z,1.70
2022-08-07T13:14:17.148Z,1.70
2022-08-07T13:20:01.180Z,2.00
2022-08-07T13:31:32.160Z,2.30
2022-08-07T13:37:26.720Z,2.10
2022-08-07T13:43:12.070Z,2.30
2022-08-07T13:48:41.041Z,2.20
2022-08-07T13:54:22.675Z,2.20
2022-08-07T14:00:03.306Z,1.70
2022-08-07T14:05:41.809Z,1.80
2022-08-07T14:11:15.426Z,1.80
2022-08-07T14:16:50.476Z,1.60
2022-08-07T14:22:46.257Z,1.50
2022-08-07T14:28:55.888Z,1.80
2022-08-07T14:34:10.203Z,1.30
2022-08-07T14:40:15.847Z,1.60
2022-08-07T14:45:46.688Z,1.40
2022-08-07T14:51:22.726Z,1.60
2022-08-07T15:02:34.124Z,1.70
2022-08-07T15:08:05.928Z,1.80
2022-08-07T15:13:43.700Z,1.50
2022-08-07T15:19:11.310Z,1.50
2022-08-07T15:25:14.899Z,1.30
2022-08-07T15:31:05.179Z,1.20
2022-08-07T15:37:02.691Z,1.50
2022-08-07T15:42:44.931Z,1.20
2022-08-07T15:48:12.615Z,1.20
2022-08-07T15:53:51.678Z,1.40
2022-08-07T15:59:39.697Z,1.20
2022-08-07T16:05:31.382Z,1.20
2022-08-07T16:11:26.981Z,1.30
2022-08-07T16:18:01.866Z,1.20
2022-08-07T16:23:59.402Z,1.20
2022-08-07T16:30:10.983Z,1.50
2022-08-07T16:35:58.781Z,1.10
2022-08-07T16:41:48.725Z,1.30
2022-08-07T16:47:56.945Z,1.00
2022-08-07T16:54:02.016Z,1.00
2022-08-07T16:59:57.206Z,1.20
2022-08-07T17:06:22.449Z,1.70
2022-08-07T17:12:04.476Z,1.40
2022-08-07T17:17:50.403Z,1.40
2022-08-07T17:23:51.228Z,1.40
2022-08-07T17:30:13.969Z,1.10
2022-08-07T17:36:00.361Z,1.30
2022-08-07T17:42:06.719Z,0.90
2022-08-07T17:48:11.266Z,1.30
2022-08-07T17:53:59.947Z,1.40
2022-08-07T17:59:43.103Z,1.60
2022-08-07T18:05:22.279Z,1.50
2022-08-07T18:12:07.797Z,1.80
2022-08-07T18:18:46.719Z,1.60
2022-08-07T18:24:07.316Z,2.00
2022-08-07T18:30:07.659Z,1.60
2022-08-07T18:36:10.745Z,2.10
2022-08-07T18:42:42.473Z,1.80
2022-08-07T18:50:30.572Z,2.30
2022-08-07T18:55:41.974Z,1.90
2022-08-07T19:02:32.623Z,2.10
2022-08-07T19:08:28.805Z,2.30
2022-08-07T19:14:32.420Z,2.10
2022-08-07T19:20:29.791Z,2.60
2022-08-07T19:26:25.143Z,2.30
2022-08-07T19:32:17.169Z,2.10
2022-08-07T19:38:15.103Z,2.70
2022-08-07T19:43:56.807Z,2.10
2022-08-07T19:50:02.602Z,2.20
2022-08-07T19:55:57.507Z,2.20
2022-08-07T20:01:58.050Z,2.60
2022-08-07T20:07:47.795Z,2.70
2022-08-07T20:13:32.170Z,2.60
2022-08-07T20:19:58.285Z,2.10
2022-08-07T20:26:32.425Z,2.50
2022-08-07T20:33:04.923Z,2.40
2022-08-07T21:12:16.368Z,1.70
2022-08-07T21:18:46.034Z,1.90
2022-08-07T21:25:12.927Z,1.70
2022-08-07T21:37:58.714Z,3.00
2022-08-07T21:46:03.548Z,1.40
2022-08-07T21:52:43.223Z,1.90
2022-08-07T22:00:05.152Z,2.90
2022-08-07T23:56:38.810Z,2.20
